Estación Meteorológica Peña el Pijo (Robertgarden) [ 01/30/23 14:03:20 CET ]

Fecha Hora Presion(HPa) Temp (°C) Humedad % Rocio (°C) Viento ( m/s) Direccion Lluvia 1Hora(mm) Lluvia 24H(mm) LLuvia Total(mm)
2010-Jun-02 01:01:16 1012.400 17.7 62 10.3         114.99
2010-Jun-02 02:01:12 1012.000 16.8 63 9.7         114.99
2010-Jun-02 03:03:19 1011.500 15.8 66 9.5         114.99
2010-Jun-02 04:01:17 1011.500 14.6 70 9.2         114.99
2010-Jun-02 05:01:17 1011.100 14.2 71 9.0         114.99
2010-Jun-02 06:01:14 1011.000 13.9 73 9.1         114.99
2010-Jun-02 07:01:14 1011.000 13.9 73 9.1         114.99
2010-Jun-02 08:01:17 1011.000 16.4 69 10.7         114.99
2010-Jun-02 09:01:12 1010.600 20.0 63 12.7         114.99
2010-Jun-02 10:01:13 1010.500 24.4 55 14.8         114.99
2010-Jun-02 11:01:19 1010.500 28.3 45 15.2         114.99
2010-Jun-02 12:01:13 1010.400 29.3 32 10.8 0.9 SSW     114.99
2010-Jun-02 13:01:17 1010.100 32.1 27 10.6         114.99
2010-Jun-02 14:01:14 1009.800 32.3 24 8.9         114.99
2010-Jun-02 15:01:10 1009.500 32.4 23 8.4         114.99
2010-Jun-02 16:01:16 1009.300 31.9 22 7.4         114.99
2010-Jun-02 17:01:16 1009.100 32.6 22 8.0         114.99
2010-Jun-02 18:01:16 1009.100 30.5 22 6.2         114.99
2010-Jun-02 19:01:14 1009.200 29.6 27 8.4         114.99
2010-Jun-02 20:01:13 1009.000 27.9 30 8.7         114.99
2010-Jun-02 21:01:14 1009.400 24.4 42 10.6         114.99
2010-Jun-02 22:01:16 1009.600 20.1 53 10.2         114.99
2010-Jun-02 23:01:14 1010.000 17.8 55 8.6         114.99

Temperatura Máxima:32°    Temperatura Mínima:13°
Presión Máxima:1012.400 Hpa    Presión Mínima:1009.000 Hpa


Volver